Hyalite Weather Station

This weather station provides temperature, wind speed, gust or max wind speed, and wind direction at 9982ft near the summit of Flanders Mountain. This data can be used with temperature and precipitation data from the Shower Falls SNOTEL site. If the data has not been updated recently you can view it directly on datagarrison.com

Elevation
9982ft
Jump to table bottom
Date Time Temperature
deg F
RH, % Wind Speed Wind Gust Wind Direction
02/22/18 22:00 0.6 89 15 21 SW - 218
02/22/18 21:00 1.0 84 14 20 SW - 219
02/22/18 20:00 1.1 83 14 21 SW - 215
02/22/18 19:00 0.8 88 12 18 SW - 213
02/22/18 18:00 1.1 89 7 16 SW - 232
02/22/18 17:00 2.5 87 7 15 SW - 244
02/22/18 16:00 4.2 82 6 13 SW - 243
02/22/18 15:00 4.3 83 6 13 SW - 236
02/22/18 14:00 4.2 82 5 10 SW - 246
02/22/18 13:00 3.7 83 5 10 SW - 244
02/22/18 12:00 2.4 83 5 11 SW - 232
02/22/18 11:00 2.6 80 5 10 SW - 223
02/22/18 10:00 0.6 79 9 16 SW - 219
02/22/18 09:00 -1.5 85 14 19 SW - 206
02/22/18 08:00 -0.8 78 14 20 SW - 218
02/22/18 07:00 -2.4 81 14 20 SW - 222
02/22/18 06:00 -1.4 76 14 21 SW - 233
02/22/18 05:00 -1.4 72 14 21 SW - 244
02/22/18 04:00 -2.4 80 12 24 SW - 229
02/22/18 03:00 -2.3 81 14 24 SW - 226
02/22/18 02:00 -2.1 83 14 24 SW - 226
02/22/18 01:00 -2.1 83 16 30 SW - 230
02/22/18 00:00 -2.4 85 20 28 SW - 230
02/21/18 23:00 -2.7 87 17 29 SW - 232
02/21/18 22:00 -2.6 87 17 27 SW - 234
02/21/18 21:00 -2.7 88 20 32 SW - 237
02/21/18 20:00 -3.2 88 17 30 SW - 240
02/21/18 19:00 -3.0 88 16 27 SW - 236
02/21/18 18:00 -2.7 88 15 26 SW - 240
02/21/18 17:00 -2.6 88 14 24 SW - 244
02/21/18 16:00 -1.9 88 13 26 W - 256
02/21/18 15:00 -2.4 86 16 27 W - 253
02/21/18 14:00 -2.9 85 16 29 SW - 246
02/21/18 13:00 -3.6 85 20 31 SW - 243
02/21/18 12:00 -4.7 85 25 35 SW - 241
02/21/18 11:00 -5.9 84 24 35 SW - 244
02/21/18 10:00 -7.1 85 23 32 SW - 243
02/21/18 09:00 -8.1 83 22 31 SW - 243
02/21/18 08:00 -8.8 85 19 27 SW - 240
02/21/18 07:00 -9.8 86 17 26 SW - 240
02/21/18 06:00 -9.9 85 21 31 SW - 243
02/21/18 05:00 -10.3 86 25 36 SW - 237
02/21/18 04:00 -9.7 85 25 37 SW - 236
02/21/18 03:00 -9.6 85 27 37 SW - 233
02/21/18 02:00 -9.2 86 24 32 SW - 234
02/21/18 01:00 -10.3 85 20 31 SW - 236
02/21/18 00:00 -10.1 85 18 26 SW - 230
02/20/18 23:00 -10.4 85 17 25 SW - 233
02/20/18 22:00 -10.8 85 15 24 SW - 233
02/20/18 21:00 -10.8 85 17 28 SW - 234
https://datagarrison.com/users/300034012539980/300234063416550/temp/300234063416550_live.txt